sensor_id;sensor_type;location;lat;lon;timestamp;P1;P2;P0
56175;PMS5003;63065;51.082;17.016;2022-11-04T00:00:00;41;39;
56175;PMS5003;63065;51.082;17.016;2022-11-04T00:02:25;44;43;
56175;PMS5003;63065;51.082;17.016;2022-11-04T00:04:51;51;43;
56175;PMS5003;63065;51.082;17.016;2022-11-04T00:07:16;49;47;
56175;PMS5003;63065;51.082;17.016;2022-11-04T00:09:42;55;48;
56175;PMS5003;63065;51.082;17.016;2022-11-04T00:12:07;45;44;
56175;PMS5003;63065;51.082;17.016;2022-11-04T00:14:33;41;37;
56175;PMS5003;63065;51.082;17.016;2022-11-04T00:16:59;55;51;
56175;PMS5003;63065;51.082;17.016;2022-11-04T00:19:24;55;48;
56175;PMS5003;63065;51.082;17.016;2022-11-04T00:21:50;53;47;
56175;PMS5003;63065;51.082;17.016;2022-11-04T00:24:15;47;44;
56175;PMS5003;63065;51.082;17.016;2022-11-04T00:26:40;39;35;
56175;PMS5003;63065;51.082;17.016;2022-11-04T00:29:06;49;44;
56175;PMS5003;63065;51.082;17.016;2022-11-04T00:31:31;44;39;
56175;PMS5003;63065;51.082;17.016;2022-11-04T00:33:57;57;49;
56175;PMS5003;63065;51.082;17.016;2022-11-04T00:36:22;45;43;
56175;PMS5003;63065;51.082;17.016;2022-11-04T00:38:46;45;43;
56175;PMS5003;63065;51.082;17.016;2022-11-04T00:41:12;46;42;
56175;PMS5003;63065;51.082;17.016;2022-11-04T00:43:37;42;41;
56175;PMS5003;63065;51.082;17.016;2022-11-04T00:46:02;38;37;
56175;PMS5003;63065;51.082;17.016;2022-11-04T00:48:28;41;39;
56175;PMS5003;63065;51.082;17.016;2022-11-04T00:50:54;44;42;
56175;PMS5003;63065;51.082;17.016;2022-11-04T00:53:19;44;39;
56175;PMS5003;63065;51.082;17.016;2022-11-04T00:55:44;45;38;
56175;PMS5003;63065;51.082;17.016;2022-11-04T00:58:10;39;36;
56175;PMS5003;63065;51.082;17.016;2022-11-04T01:00:35;53;44;
56175;PMS5003;63065;51.082;17.016;2022-11-04T01:03:01;44;38;
56175;PMS5003;63065;51.082;17.016;2022-11-04T01:05:26;43;38;
56175;PMS5003;63065;51.082;17.016;2022-11-04T01:07:52;41;33;
56175;PMS5003;63065;51.082;17.016;2022-11-04T01:10:17;42;37;
56175;PMS5003;63065;51.082;17.016;2022-11-04T01:12:42;44;43;
56175;PMS5003;63065;51.082;17.016;2022-11-04T01:15:08;46;39;
56175;PMS5003;63065;51.082;17.016;2022-11-04T01:17:34;38;34;
56175;PMS5003;63065;51.082;17.016;2022-11-04T01:19:59;45;42;
56175;PMS5003;63065;51.082;17.016;2022-11-04T01:22:24;35;33;
56175;PMS5003;63065;51.082;17.016;2022-11-04T01:24:50;44;40;
56175;PMS5003;63065;51.082;17.016;2022-11-04T01:27:15;39;36;
56175;PMS5003;63065;51.082;17.016;2022-11-04T01:29:41;40;37;
56175;PMS5003;63065;51.082;17.016;2022-11-04T01:32:07;42;39;
56175;PMS5003;63065;51.082;17.016;2022-11-04T01:34:32;42;38;
56175;PMS5003;63065;51.082;17.016;2022-11-04T01:36:57;41;36;
56175;PMS5003;63065;51.082;17.016;2022-11-04T01:39:23;39;36;
56175;PMS5003;63065;51.082;17.016;2022-11-04T01:41:49;39;37;
56175;PMS5003;63065;51.082;17.016;2022-11-04T01:46:41;37;33;
56175;PMS5003;63065;51.082;17.016;2022-11-04T01:49:10;38;33;
56175;PMS5003;63065;51.082;17.016;2022-11-04T01:51:31;45;37;
56175;PMS5003;63065;51.082;17.016;2022-11-04T01:53:56;37;34;
56175;PMS5003;63065;51.082;17.016;2022-11-04T01:56:22;39;35;
56175;PMS5003;63065;51.082;17.016;2022-11-04T01:58:48;43;39;
56175;PMS5003;63065;51.082;17.016;2022-11-04T02:01:13;43;37;
56175;PMS5003;63065;51.082;17.016;2022-11-04T02:03:39;40;39;
56175;PMS5003;63065;51.082;17.016;2022-11-04T02:06:03;42;36;
56175;PMS5003;63065;51.082;17.016;2022-11-04T02:08:29;39;33;
56175;PMS5003;63065;51.082;17.016;2022-11-04T02:10:56;36;35;
56175;PMS5003;63065;51.082;17.016;2022-11-04T02:13:20;33;29;
56175;PMS5003;63065;51.082;17.016;2022-11-04T02:15:48;41;35;
56175;PMS5003;63065;51.082;17.016;2022-11-04T02:18:16;38;32;
56175;PMS5003;63065;51.082;17.016;2022-11-04T02:20:43;36;31;
56175;PMS5003;63065;51.082;17.016;2022-11-04T02:25:34;37;36;
56175;PMS5003;63065;51.082;17.016;2022-11-04T02:27:59;38;36;
56175;PMS5003;63065;51.082;17.016;2022-11-04T02:30:19;34;32;
56175;PMS5003;63065;51.082;17.016;2022-11-04T02:35:11;32;30;
56175;PMS5003;63065;51.082;17.016;2022-11-04T02:37:37;41;37;
56175;PMS5003;63065;51.082;17.016;2022-11-04T02:40:05;40;35;
56175;PMS5003;63065;51.082;17.016;2022-11-04T02:42:27;35;34;
56175;PMS5003;63065;51.082;17.016;2022-11-04T02:44:54;37;35;
56175;PMS5003;63065;51.082;17.016;2022-11-04T02:47:18;35;32;
56175;PMS5003;63065;51.082;17.016;2022-11-04T02:49:43;34;34;
56175;PMS5003;63065;51.082;17.016;2022-11-04T02:52:08;33;33;
56175;PMS5003;63065;51.082;17.016;2022-11-04T02:54:33;41;36;
56175;PMS5003;63065;51.082;17.016;2022-11-04T02:56:58;35;31;
56175;PMS5003;63065;51.082;17.016;2022-11-04T02:59:25;44;37;
56175;PMS5003;63065;51.082;17.016;2022-11-04T03:01:48;38;34;
56175;PMS5003;63065;51.082;17.016;2022-11-04T03:04:15;38;37;
56175;PMS5003;63065;51.082;17.016;2022-11-04T03:06:39;35;32;
56175;PMS5003;63065;51.082;17.016;2022-11-04T03:09:05;43;35;
56175;PMS5003;63065;51.082;17.016;2022-11-04T03:11:30;34;30;
56175;PMS5003;63065;51.082;17.016;2022-11-04T03:13:57;38;37;
56175;PMS5003;63065;51.082;17.016;2022-11-04T03:16:22;38;32;
56175;PMS5003;63065;51.082;17.016;2022-11-04T03:18:53;39;36;
56175;PMS5003;63065;51.082;17.016;2022-11-04T03:21:12;40;37;
56175;PMS5003;63065;51.082;17.016;2022-11-04T03:23:38;34;34;
56175;PMS5003;63065;51.082;17.016;2022-11-04T03:26:06;40;35;
56175;PMS5003;63065;51.082;17.016;2022-11-04T03:28:32;40;38;
56175;PMS5003;63065;51.082;17.016;2022-11-04T03:30:55;36;31;
56175;PMS5003;63065;51.082;17.016;2022-11-04T03:33:21;31;31;
56175;PMS5003;63065;51.082;17.016;2022-11-04T03:35:45;42;36;
56175;PMS5003;63065;51.082;17.016;2022-11-04T03:38:10;36;35;
56175;PMS5003;63065;51.082;17.016;2022-11-04T03:40:35;43;37;
56175;PMS5003;63065;51.082;17.016;2022-11-04T03:43:04;38;36;
56175;PMS5003;63065;51.082;17.016;2022-11-04T03:45:26;38;29;
56175;PMS5003;63065;51.082;17.016;2022-11-04T03:47:51;36;33;
56175;PMS5003;63065;51.082;17.016;2022-11-04T03:50:18;39;35;
56175;PMS5003;63065;51.082;17.016;2022-11-04T03:52:42;38;35;
56175;PMS5003;63065;51.082;17.016;2022-11-04T03:55:07;36;32;
56175;PMS5003;63065;51.082;17.016;2022-11-04T03:57:33;35;33;
56175;PMS5003;63065;51.082;17.016;2022-11-04T04:00:03;34;33;
56175;PMS5003;63065;51.082;17.016;2022-11-04T04:02:25;38;34;
56175;PMS5003;63065;51.082;17.016;2022-11-04T04:04:51;32;32;
56175;PMS5003;63065;51.082;17.016;2022-11-04T04:07:15;40;35;
56175;PMS5003;63065;51.082;17.016;2022-11-04T04:09:41;36;34;
56175;PMS5003;63065;51.082;17.016;2022-11-04T04:12:05;37;34;
56175;PMS5003;63065;51.082;17.016;2022-11-04T04:14:31;38;31;
56175;PMS5003;63065;51.082;17.016;2022-11-04T04:16:56;35;34;
56175;PMS5003;63065;51.082;17.016;2022-11-04T04:19:21;35;35;
56175;PMS5003;63065;51.082;17.016;2022-11-04T04:21:48;37;33;
56175;PMS5003;63065;51.082;17.016;2022-11-04T04:24:13;40;35;
56175;PMS5003;63065;51.082;17.016;2022-11-04T04:26:38;44;38;
56175;PMS5003;63065;51.082;17.016;2022-11-04T04:29:03;38;35;
56175;PMS5003;63065;51.082;17.016;2022-11-04T04:31:29;37;33;
56175;PMS5003;63065;51.082;17.016;2022-11-04T04:33:54;40;36;
56175;PMS5003;63065;51.082;17.016;2022-11-04T04:36:20;41;38;
56175;PMS5003;63065;51.082;17.016;2022-11-04T04:38:45;37;35;
56175;PMS5003;63065;51.082;17.016;2022-11-04T04:41:12;47;37;
56175;PMS5003;63065;51.082;17.016;2022-11-04T04:43:36;40;35;
56175;PMS5003;63065;51.082;17.016;2022-11-04T04:46:01;42;37;
56175;PMS5003;63065;51.082;17.016;2022-11-04T04:48:27;45;42;
56175;PMS5003;63065;51.082;17.016;2022-11-04T04:50:52;43;42;
56175;PMS5003;63065;51.082;17.016;2022-11-04T04:53:18;41;39;
56175;PMS5003;63065;51.082;17.016;2022-11-04T04:55:43;46;42;
56175;PMS5003;63065;51.082;17.016;2022-11-04T04:58:09;47;44;
56175;PMS5003;63065;51.082;17.016;2022-11-04T05:00:34;49;41;
56175;PMS5003;63065;51.082;17.016;2022-11-04T05:02:59;49;43;
56175;PMS5003;63065;51.082;17.016;2022-11-04T05:05:25;44;42;
56175;PMS5003;63065;51.082;17.016;2022-11-04T05:07:51;48;46;
56175;PMS5003;63065;51.082;17.016;2022-11-04T05:10:16;44;41;
56175;PMS5003;63065;51.082;17.016;2022-11-04T05:12:41;50;43;
56175;PMS5003;63065;51.082;17.016;2022-11-04T05:15:07;39;38;
56175;PMS5003;63065;51.082;17.016;2022-11-04T05:17:32;49;41;
56175;PMS5003;63065;51.082;17.016;2022-11-04T05:19:57;42;38;
56175;PMS5003;63065;51.082;17.016;2022-11-04T05:22:23;55;46;
56175;PMS5003;63065;51.082;17.016;2022-11-04T05:24:48;42;40;
56175;PMS5003;63065;51.082;17.016;2022-11-04T05:27:14;43;37;
56175;PMS5003;63065;51.082;17.016;2022-11-04T05:29:40;46;42;
56175;PMS5003;63065;51.082;17.016;2022-11-04T05:32:05;40;38;
56175;PMS5003;63065;51.082;17.016;2022-11-04T05:34:30;46;42;
56175;PMS5003;63065;51.082;17.016;2022-11-04T05:36:56;55;46;
56175;PMS5003;63065;51.082;17.016;2022-11-04T05:39:21;45;44;
56175;PMS5003;63065;51.082;17.016;2022-11-04T05:41:46;55;47;
56175;PMS5003;63065;51.082;17.016;2022-11-04T05:44:12;53;48;
56175;PMS5003;63065;51.082;17.016;2022-11-04T05:46:37;45;42;
56175;PMS5003;63065;51.082;17.016;2022-11-04T05:49:03;43;39;
56175;PMS5003;63065;51.082;17.016;2022-11-04T05:51:29;47;44;
56175;PMS5003;63065;51.082;17.016;2022-11-04T05:53:54;48;42;
56175;PMS5003;63065;51.082;17.016;2022-11-04T05:56:20;49;43;
56175;PMS5003;63065;51.082;17.016;2022-11-04T05:58:45;43;40;
56175;PMS5003;63065;51.082;17.016;2022-11-04T06:01:12;42;41;
56175;PMS5003;63065;51.082;17.016;2022-11-04T06:03:36;47;43;
56175;PMS5003;63065;51.082;17.016;2022-11-04T06:06:02;54;46;
56175;PMS5003;63065;51.082;17.016;2022-11-04T06:08:27;43;40;
56175;PMS5003;63065;51.082;17.016;2022-11-04T06:10:53;56;45;
56175;PMS5003;63065;51.082;17.016;2022-11-04T06:13:18;50;45;
56175;PMS5003;63065;51.082;17.016;2022-11-04T06:15:43;47;42;
56175;PMS5003;63065;51.082;17.016;2022-11-04T06:18:09;50;43;
56175;PMS5003;63065;51.082;17.016;2022-11-04T06:20:34;52;48;
56175;PMS5003;63065;51.082;17.016;2022-11-04T06:22:59;48;43;
56175;PMS5003;63065;51.082;17.016;2022-11-04T06:25:24;47;42;
56175;PMS5003;63065;51.082;17.016;2022-11-04T06:27:49;49;42;
56175;PMS5003;63065;51.082;17.016;2022-11-04T06:30:15;45;42;
56175;PMS5003;63065;51.082;17.016;2022-11-04T06:32:40;52;47;
56175;PMS5003;63065;51.082;17.016;2022-11-04T06:35:06;52;48;
56175;PMS5003;63065;51.082;17.016;2022-11-04T06:37:32;51;46;
56175;PMS5003;63065;51.082;17.016;2022-11-04T06:39:57;60;48;
56175;PMS5003;63065;51.082;17.016;2022-11-04T06:42:23;54;47;
56175;PMS5003;63065;51.082;17.016;2022-11-04T06:44:48;57;50;
56175;PMS5003;63065;51.082;17.016;2022-11-04T06:47:13;72;62;
56175;PMS5003;63065;51.082;17.016;2022-11-04T06:49:39;55;54;
56175;PMS5003;63065;51.082;17.016;2022-11-04T06:52:05;58;56;
56175;PMS5003;63065;51.082;17.016;2022-11-04T06:54:30;66;59;
56175;PMS5003;63065;51.082;17.016;2022-11-04T06:56:55;67;57;
56175;PMS5003;63065;51.082;17.016;2022-11-04T06:59:20;75;61;
56175;PMS5003;63065;51.082;17.016;2022-11-04T07:01:47;66;59;
56175;PMS5003;63065;51.082;17.016;2022-11-04T07:04:11;63;56;
56175;PMS5003;63065;51.082;17.016;2022-11-04T07:06:40;66;61;
56175;PMS5003;63065;51.082;17.016;2022-11-04T07:09:02;64;60;
56175;PMS5003;63065;51.082;17.016;2022-11-04T07:11:29;65;55;
56175;PMS5003;63065;51.082;17.016;2022-11-04T07:13:54;61;50;
56175;PMS5003;63065;51.082;17.016;2022-11-04T07:16:19;63;62;
56175;PMS5003;63065;51.082;17.016;2022-11-04T07:18:45;61;57;
56175;PMS5003;63065;51.082;17.016;2022-11-04T07:21:15;58;55;
56175;PMS5003;63065;51.082;17.016;2022-11-04T07:23:35;55;50;
56175;PMS5003;63065;51.082;17.016;2022-11-04T07:26:02;63;59;
56175;PMS5003;63065;51.082;17.016;2022-11-04T07:28:26;69;59;
56175;PMS5003;63065;51.082;17.016;2022-11-04T07:30:53;58;49;
56175;PMS5003;63065;51.082;17.016;2022-11-04T07:33:16;68;57;
56175;PMS5003;63065;51.082;17.016;2022-11-04T07:35:42;58;55;
56175;PMS5003;63065;51.082;17.016;2022-11-04T07:38:07;59;53;
56175;PMS5003;63065;51.082;17.016;2022-11-04T07:40:32;59;52;
56175;PMS5003;63065;51.082;17.016;2022-11-04T07:42:57;50;45;
56175;PMS5003;63065;51.082;17.016;2022-11-04T07:45:23;63;55;
56175;PMS5003;63065;51.082;17.016;2022-11-04T07:47:48;58;52;
56175;PMS5003;63065;51.082;17.016;2022-11-04T07:50:14;60;52;
56175;PMS5003;63065;51.082;17.016;2022-11-04T07:52:39;61;55;
56175;PMS5003;63065;51.082;17.016;2022-11-04T07:55:05;55;50;
56175;PMS5003;63065;51.082;17.016;2022-11-04T07:57:30;56;47;
56175;PMS5003;63065;51.082;17.016;2022-11-04T07:59:56;54;50;
56175;PMS5003;63065;51.082;17.016;2022-11-04T08:02:21;52;50;
56175;PMS5003;63065;51.082;17.016;2022-11-04T08:04:47;61;53;
56175;PMS5003;63065;51.082;17.016;2022-11-04T08:07:13;48;45;
56175;PMS5003;63065;51.082;17.016;2022-11-04T08:09:38;46;43;
56175;PMS5003;63065;51.082;17.016;2022-11-04T08:12:04;49;47;
56175;PMS5003;63065;51.082;17.016;2022-11-04T08:14:29;50;45;
56175;PMS5003;63065;51.082;17.016;2022-11-04T08:16:54;51;47;
56175;PMS5003;63065;51.082;17.016;2022-11-04T08:19:19;47;44;
56175;PMS5003;63065;51.082;17.016;2022-11-04T08:21:45;49;44;
56175;PMS5003;63065;51.082;17.016;2022-11-04T08:24:10;61;49;
56175;PMS5003;63065;51.082;17.016;2022-11-04T08:26:36;45;42;
56175;PMS5003;63065;51.082;17.016;2022-11-04T08:29:04;55;55;
56175;PMS5003;63065;51.082;17.016;2022-11-04T08:31:27;61;54;
56175;PMS5003;63065;51.082;17.016;2022-11-04T08:33:53;50;45;
56175;PMS5003;63065;51.082;17.016;2022-11-04T08:36:19;45;40;
56175;PMS5003;63065;51.082;17.016;2022-11-04T08:38:44;55;47;
56175;PMS5003;63065;51.082;17.016;2022-11-04T08:41:09;53;50;
56175;PMS5003;63065;51.082;17.016;2022-11-04T08:43:34;56;53;
56175;PMS5003;63065;51.082;17.016;2022-11-04T08:46:00;46;42;
56175;PMS5003;63065;51.082;17.016;2022-11-04T08:48:26;61;51;
56175;PMS5003;63065;51.082;17.016;2022-11-04T08:50:52;48;44;
56175;PMS5003;63065;51.082;17.016;2022-11-04T08:53:16;45;43;
56175;PMS5003;63065;51.082;17.016;2022-11-04T08:55:42;50;41;
56175;PMS5003;63065;51.082;17.016;2022-11-04T08:58:07;52;47;
56175;PMS5003;63065;51.082;17.016;2022-11-04T09:00:32;51;46;
56175;PMS5003;63065;51.082;17.016;2022-11-04T09:02:58;49;42;
56175;PMS5003;63065;51.082;17.016;2022-11-04T09:05:24;54;47;
56175;PMS5003;63065;51.082;17.016;2022-11-04T09:07:49;55;47;
56175;PMS5003;63065;51.082;17.016;2022-11-04T09:10:15;47;45;
56175;PMS5003;63065;51.082;17.016;2022-11-04T09:12:40;55;50;
56175;PMS5003;63065;51.082;17.016;2022-11-04T09:15:06;59;53;
56175;PMS5003;63065;51.082;17.016;2022-11-04T09:17:31;52;46;
56175;PMS5003;63065;51.082;17.016;2022-11-04T09:19:56;56;49;
56175;PMS5003;63065;51.082;17.016;2022-11-04T09:22:22;51;43;
56175;PMS5003;63065;51.082;17.016;2022-11-04T09:24:48;53;47;
56175;PMS5003;63065;51.082;17.016;2022-11-04T09:27:13;50;44;
56175;PMS5003;63065;51.082;17.016;2022-11-04T09:29:38;43;37;
56175;PMS5003;63065;51.082;17.016;2022-11-04T09:32:04;43;37;
56175;PMS5003;63065;51.082;17.016;2022-11-04T09:34:29;49;42;
56175;PMS5003;63065;51.082;17.016;2022-11-04T09:36:55;53;48;
56175;PMS5003;63065;51.082;17.016;2022-11-04T09:39:20;48;38;
56175;PMS5003;63065;51.082;17.016;2022-11-04T09:44:14;37;34;
56175;PMS5003;63065;51.082;17.016;2022-11-04T09:46:36;40;36;
56175;PMS5003;63065;51.082;17.016;2022-11-04T09:49:02;42;31;
56175;PMS5003;63065;51.082;17.016;2022-11-04T09:51:27;40;34;
56175;PMS5003;63065;51.082;17.016;2022-11-04T09:53:54;39;31;
56175;PMS5003;63065;51.082;17.016;2022-11-04T09:56:19;37;31;
56175;PMS5003;63065;51.082;17.016;2022-11-04T09:58:43;35;30;
56175;PMS5003;63065;51.082;17.016;2022-11-04T10:01:13;46;38;
56175;PMS5003;63065;51.082;17.016;2022-11-04T10:03:38;35;33;
56175;PMS5003;63065;51.082;17.016;2022-11-04T10:06:04;39;38;
56175;PMS5003;63065;51.082;17.016;2022-11-04T10:08:32;40;34;
56175;PMS5003;63065;51.082;17.016;2022-11-04T10:10:52;35;29;
56175;PMS5003;63065;51.082;17.016;2022-11-04T10:13:19;40;38;
56175;PMS5003;63065;51.082;17.016;2022-11-04T10:18:12;43;39;
56175;PMS5003;63065;51.082;17.016;2022-11-04T10:20:36;39;35;
56175;PMS5003;63065;51.082;17.016;2022-11-04T10:23:00;45;37;
56175;PMS5003;63065;51.082;17.016;2022-11-04T10:25:26;38;33;
56175;PMS5003;63065;51.082;17.016;2022-11-04T10:27:50;35;34;
56175;PMS5003;63065;51.082;17.016;2022-11-04T10:30:17;37;33;
56175;PMS5003;63065;51.082;17.016;2022-11-04T10:32:43;37;37;
56175;PMS5003;63065;51.082;17.016;2022-11-04T10:35:09;36;33;
56175;PMS5003;63065;51.082;17.016;2022-11-04T10:37:33;40;39;
56175;PMS5003;63065;51.082;17.016;2022-11-04T10:39:59;41;34;
56175;PMS5003;63065;51.082;17.016;2022-11-04T10:42:23;41;40;
56175;PMS5003;63065;51.082;17.016;2022-11-04T10:44:49;40;35;
56175;PMS5003;63065;51.082;17.016;2022-11-04T10:47:17;49;39;
56175;PMS5003;63065;51.082;17.016;2022-11-04T10:49:43;43;41;
56175;PMS5003;63065;51.082;17.016;2022-11-04T10:52:05;42;40;
56175;PMS5003;63065;51.082;17.016;2022-11-04T10:54:31;35;33;
56175;PMS5003;63065;51.082;17.016;2022-11-04T10:56:56;41;39;
56175;PMS5003;63065;51.082;17.016;2022-11-04T10:59:22;33;31;
56175;PMS5003;63065;51.082;17.016;2022-11-04T11:01:48;47;40;
56175;PMS5003;63065;51.082;17.016;2022-11-04T11:04:13;38;32;
56175;PMS5003;63065;51.082;17.016;2022-11-04T11:06:38;41;38;
56175;PMS5003;63065;51.082;17.016;2022-11-04T11:13:54;40;38;
56175;PMS5003;63065;51.082;17.016;2022-11-04T11:16:24;40;37;
56175;PMS5003;63065;51.082;17.016;2022-11-04T11:18:48;36;32;
56175;PMS5003;63065;51.082;17.016;2022-11-04T11:21:11;42;37;
56175;PMS5003;63065;51.082;17.016;2022-11-04T11:23:38;35;32;
56175;PMS5003;63065;51.082;17.016;2022-11-04T11:26:02;43;39;
56175;PMS5003;63065;51.082;17.016;2022-11-04T11:28:27;41;37;
56175;PMS5003;63065;51.082;17.016;2022-11-04T11:30:54;37;36;
56175;PMS5003;63065;51.082;17.016;2022-11-04T11:33:19;41;40;
56175;PMS5003;63065;51.082;17.016;2022-11-04T11:35:46;40;34;
56175;PMS5003;63065;51.082;17.016;2022-11-04T11:38:14;39;39;
56175;PMS5003;63065;51.082;17.016;2022-11-04T11:40:36;42;35;
56175;PMS5003;63065;51.082;17.016;2022-11-04T11:43:00;39;37;
56175;PMS5003;63065;51.082;17.016;2022-11-04T11:45:25;46;40;
56175;PMS5003;63065;51.082;17.016;2022-11-04T11:47:51;39;36;
56175;PMS5003;63065;51.082;17.016;2022-11-04T11:50:17;44;38;
56175;PMS5003;63065;51.082;17.016;2022-11-04T11:52:42;39;35;
56175;PMS5003;63065;51.082;17.016;2022-11-04T11:55:09;43;35;
56175;PMS5003;63065;51.082;17.016;2022-11-04T11:57:34;36;33;
56175;PMS5003;63065;51.082;17.016;2022-11-04T11:59:59;43;39;
56175;PMS5003;63065;51.082;17.016;2022-11-04T12:02:25;43;39;
56175;PMS5003;63065;51.082;17.016;2022-11-04T12:04:48;40;35;
56175;PMS5003;63065;51.082;17.016;2022-11-04T12:07:15;47;44;
56175;PMS5003;63065;51.082;17.016;2022-11-04T12:09:40;41;34;
56175;PMS5003;63065;51.082;17.016;2022-11-04T12:12:12;38;35;
56175;PMS5003;63065;51.082;17.016;2022-11-04T12:14:33;46;44;
56175;PMS5003;63065;51.082;17.016;2022-11-04T12:16:57;40;38;
56175;PMS5003;63065;51.082;17.016;2022-11-04T12:19:25;49;40;
56175;PMS5003;63065;51.082;17.016;2022-11-04T12:21:48;53;42;
56175;PMS5003;63065;51.082;17.016;2022-11-04T12:24:15;43;39;
56175;PMS5003;63065;51.082;17.016;2022-11-04T12:26:39;51;44;
56175;PMS5003;63065;51.082;17.016;2022-11-04T12:29:08;43;41;
56175;PMS5003;63065;51.082;17.016;2022-11-04T12:31:32;46;42;
56175;PMS5003;63065;51.082;17.016;2022-11-04T12:33:58;53;46;
56175;PMS5003;63065;51.082;17.016;2022-11-04T12:36:24;47;40;
56175;PMS5003;63065;51.082;17.016;2022-11-04T12:38:50;44;36;
56175;PMS5003;63065;51.082;17.016;2022-11-04T12:41:14;42;42;
56175;PMS5003;63065;51.082;17.016;2022-11-04T12:43:39;44;42;
56175;PMS5003;63065;51.082;17.016;2022-11-04T12:46:06;41;37;
56175;PMS5003;63065;51.082;17.016;2022-11-04T12:48:32;53;46;
56175;PMS5003;63065;51.082;17.016;2022-11-04T12:50:56;46;43;
56175;PMS5003;63065;51.082;17.016;2022-11-04T12:53:22;40;36;
56175;PMS5003;63065;51.082;17.016;2022-11-04T12:55:46;38;35;
56175;PMS5003;63065;51.082;17.016;2022-11-04T12:58:15;42;39;
56175;PMS5003;63065;51.082;17.016;2022-11-04T13:00:35;48;45;
56175;PMS5003;63065;51.082;17.016;2022-11-04T13:03:03;41;35;
56175;PMS5003;63065;51.082;17.016;2022-11-04T13:05:29;44;40;
56175;PMS5003;63065;51.082;17.016;2022-11-04T13:07:53;43;42;
56175;PMS5003;63065;51.082;17.016;2022-11-04T13:10:18;45;37;
56175;PMS5003;63065;51.082;17.016;2022-11-04T13:12:43;45;42;
56175;PMS5003;63065;51.082;17.016;2022-11-04T13:15:12;50;48;
56175;PMS5003;63065;51.082;17.016;2022-11-04T13:17:36;42;38;
56175;PMS5003;63065;51.082;17.016;2022-11-04T13:20:00;41;38;
56175;PMS5003;63065;51.082;17.016;2022-11-04T13:22:26;46;44;
56175;PMS5003;63065;51.082;17.016;2022-11-04T13:24:51;38;36;
56175;PMS5003;63065;51.082;17.016;2022-11-04T13:27:17;43;37;
56175;PMS5003;63065;51.082;17.016;2022-11-04T13:29:41;46;39;
56175;PMS5003;63065;51.082;17.016;2022-11-04T13:32:07;39;37;
56175;PMS5003;63065;51.082;17.016;2022-11-04T13:34:35;42;39;
56175;PMS5003;63065;51.082;17.016;2022-11-04T13:37:01;35;33;
56175;PMS5003;63065;51.082;17.016;2022-11-04T13:39:24;47;40;
56175;PMS5003;63065;51.082;17.016;2022-11-04T13:41:58;41;38;
56175;PMS5003;63065;51.082;17.016;2022-11-04T13:44:22;40;36;
56175;PMS5003;63065;51.082;17.016;2022-11-04T13:46:39;42;36;
56175;PMS5003;63065;51.082;17.016;2022-11-04T13:49:05;43;39;
56175;PMS5003;63065;51.082;17.016;2022-11-04T13:53:55;43;40;
56175;PMS5003;63065;51.082;17.016;2022-11-04T13:56:25;44;40;
56175;PMS5003;63065;51.082;17.016;2022-11-04T13:58:50;46;42;
56175;PMS5003;63065;51.082;17.016;2022-11-04T14:01:12;33;32;
56175;PMS5003;63065;51.082;17.016;2022-11-04T14:03:37;45;40;
56175;PMS5003;63065;51.082;17.016;2022-11-04T14:06:04;36;34;
56175;PMS5003;63065;51.082;17.016;2022-11-04T14:08:28;41;38;
56175;PMS5003;63065;51.082;17.016;2022-11-04T14:10:59;39;37;
56175;PMS5003;63065;51.082;17.016;2022-11-04T14:20:36;37;34;
56175;PMS5003;63065;51.082;17.016;2022-11-04T14:23:02;45;42;
56175;PMS5003;63065;51.082;17.016;2022-11-04T14:25:29;41;40;
56175;PMS5003;63065;51.082;17.016;2022-11-04T14:27:53;43;40;
56175;PMS5003;63065;51.082;17.016;2022-11-04T14:32:42;46;39;
56175;PMS5003;63065;51.082;17.016;2022-11-04T14:37:33;48;40;
56175;PMS5003;63065;51.082;17.016;2022-11-04T14:39:59;43;41;
56175;PMS5003;63065;51.082;17.016;2022-11-04T14:44:48;53;47;
56175;PMS5003;63065;51.082;17.016;2022-11-04T14:47:15;45;42;
56175;PMS5003;63065;51.082;17.016;2022-11-04T14:49:41;57;51;
56175;PMS5003;63065;51.082;17.016;2022-11-04T14:52:05;48;46;
56175;PMS5003;63065;51.082;17.016;2022-11-04T14:54:31;52;45;
56175;PMS5003;63065;51.082;17.016;2022-11-04T14:59:23;46;44;
56175;PMS5003;63065;51.082;17.016;2022-11-04T15:01:46;50;45;
56175;PMS5003;63065;51.082;17.016;2022-11-04T15:04:12;52;45;
56175;PMS5003;63065;51.082;17.016;2022-11-04T15:06:37;45;41;
56175;PMS5003;63065;51.082;17.016;2022-11-04T15:09:02;46;43;
56175;PMS5003;63065;51.082;17.016;2022-11-04T15:11:28;46;40;
56175;PMS5003;63065;51.082;17.016;2022-11-04T15:13:55;49;44;
56175;PMS5003;63065;51.082;17.016;2022-11-04T15:16:19;42;39;
56175;PMS5003;63065;51.082;17.016;2022-11-04T15:18:45;47;43;
56175;PMS5003;63065;51.082;17.016;2022-11-04T15:21:10;46;45;
56175;PMS5003;63065;51.082;17.016;2022-11-04T15:23:36;41;38;
56175;PMS5003;63065;51.082;17.016;2022-11-04T15:26:00;44;40;
56175;PMS5003;63065;51.082;17.016;2022-11-04T15:28:26;48;43;
56175;PMS5003;63065;51.082;17.016;2022-11-04T15:33:16;50;47;
56175;PMS5003;63065;51.082;17.016;2022-11-04T15:35:42;51;46;
56175;PMS5003;63065;51.082;17.016;2022-11-04T15:38:08;49;45;
56175;PMS5003;63065;51.082;17.016;2022-11-04T15:40:33;47;43;
56175;PMS5003;63065;51.082;17.016;2022-11-04T15:42:59;48;44;
56175;PMS5003;63065;51.082;17.016;2022-11-04T15:45:26;49;43;
56175;PMS5003;63065;51.082;17.016;2022-11-04T15:50:20;47;40;
56175;PMS5003;63065;51.082;17.016;2022-11-04T15:52:44;53;43;
56175;PMS5003;63065;51.082;17.016;2022-11-04T15:57:32;50;46;
56175;PMS5003;63065;51.082;17.016;2022-11-04T15:59:58;58;50;
56175;PMS5003;63065;51.082;17.016;2022-11-04T16:02:23;54;47;
56175;PMS5003;63065;51.082;17.016;2022-11-04T16:12:07;56;53;
56175;PMS5003;63065;51.082;17.016;2022-11-04T16:14:30;63;58;
56175;PMS5003;63065;51.082;17.016;2022-11-04T16:16:56;60;52;
56175;PMS5003;63065;51.082;17.016;2022-11-04T16:19:23;63;57;
56175;PMS5003;63065;51.082;17.016;2022-11-04T16:21:47;58;53;
56175;PMS5003;63065;51.082;17.016;2022-11-04T16:24:15;59;56;
56175;PMS5003;63065;51.082;17.016;2022-11-04T16:26:39;56;53;
56175;PMS5003;63065;51.082;17.016;2022-11-04T16:29:05;52;50;
56175;PMS5003;63065;51.082;17.016;2022-11-04T16:31:31;58;53;
56175;PMS5003;63065;51.082;17.016;2022-11-04T16:33:54;69;56;
56175;PMS5003;63065;51.082;17.016;2022-11-04T16:36:19;54;51;
56175;PMS5003;63065;51.082;17.016;2022-11-04T16:38:45;59;57;